Savage Better Way — WDF3773 — position and weather

sailwx.info

Track history (hours):
 
Tides and Currents Weather Stations Pressure Air Temp Water Temp Dewpoint Dewpoint Depression Visibility Wind Speed Wind Dir Waves Ship Positions

Savage Better Way

Owner: Savage Inland Marine, Gibson, LA. More information available from US FCC via Universal Licensing System and Coast Guard Vessel Documentation Center.

Last reported at 2017-Oct-17 05:30 UTC. Time now 2017-Oct-17 05:40 UTC.
Position N 29°37' W 095°01'.

Length 27 m; draft 3 m.

Type: Tug. MMSI: 367443840.

Date/timePositionNaut miles runAvg speedWind from/ knotsBaromVisibWave heightAir tempDewpointWater temp
2017-Oct-17 05:30N 29°37' W 095°01'0 0.0
2017-Oct-17 05:00N 29°37' W 095°01'0 0.0
2017-Oct-17 04:30N 29°37' W 095°01'0 0.0
2017-Oct-17 04:00N 29°37' W 095°01'0 0.0
2017-Oct-17 03:30N 29°37' W 095°01'0 0.0
2017-Oct-17 03:00N 29°37' W 095°01'0 0.0
2017-Oct-17 02:30N 29°37' W 095°01'0 0.0
2017-Oct-17 02:00N 29°37' W 095°01'0 0.1
2017-Oct-17 01:30N 29°37' W 095°02'0 0.1
2017-Oct-17 00:56N 29°37' W 095°02'0 0.0
2017-Oct-17 00:30N 29°37' W 095°02'0 0.0
2017-Oct-16 23:49N 29°37' W 095°02'0 0.0
2017-Oct-16 23:27N 29°37' W 095°02'0 0.0
2017-Oct-16 22:57N 29°37' W 095°02'0 0.0
2017-Oct-16 22:30N 29°37' W 095°02'0 0.0
2017-Oct-16 22:00N 29°37' W 095°02'0 0.0
2017-Oct-16 21:30N 29°37' W 095°02'0 0.0
2017-Oct-16 21:00N 29°37' W 095°02'0 0.2
2017-Oct-16 20:30N 29°37' W 095°01'0 0.1
2017-Oct-16 19:50N 29°37' W 095°02'0 0.0
2017-Oct-16 19:27N 29°37' W 095°02'0 0.0
2017-Oct-16 19:00N 29°37' W 095°02'0 0.0
2017-Oct-16 18:30N 29°37' W 095°02'0 0.0
2017-Oct-16 18:00N 29°37' W 095°02'0 0.2
2017-Oct-16 17:30N 29°37' W 095°01'0 0.4
2017-Oct-16 17:00N 29°37' W 095°01'0 0.4
2017-Oct-16 16:30N 29°37' W 095°01'0 0.1
2017-Oct-16 16:00N 29°37' W 095°02'0 0.0
2017-Oct-16 15:26N 29°37' W 095°02'0 0.0
2017-Oct-16 14:52N 29°37' W 095°02'0 0.0
2017-Oct-16 13:54N 29°37' W 095°02'0 0.0
2017-Oct-16 13:30N 29°37' W 095°02'0 0.2
2017-Oct-16 13:00N 29°37' W 095°01'0 0.2
2017-Oct-16 12:30N 29°37' W 095°02'0 0.0
2017-Oct-16 12:00N 29°37' W 095°02'0 0.0
2017-Oct-16 11:30N 29°37' W 095°02'0 0.0
2017-Oct-16 11:00N 29°37' W 095°02'0 0.0
2017-Oct-16 10:30N 29°37' W 095°02'0 0.0
2017-Oct-16 10:00N 29°37' W 095°02'0 0.0
2017-Oct-16 09:30N 29°37' W 095°02'0 0.0
2017-Oct-16 09:00N 29°37' W 095°02'0 0.0
2017-Oct-16 08:30N 29°37' W 095°02'0 0.0
2017-Oct-16 08:00N 29°37' W 095°02'0 0.0
2017-Oct-16 07:29N 29°37' W 095°02'0 0.0
2017-Oct-16 07:00N 29°37' W 095°02'0 0.0
2017-Oct-16 06:29N 29°37' W 095°02'0 0.0
2017-Oct-16 06:00N 29°37' W 095°02'0 0.0
2017-Oct-16 05:29N 29°37' W 095°02'0 0.0
2017-Oct-16 05:00N 29°37' W 095°02'0 0.0
2017-Oct-16 04:30N 29°37' W 095°02'0 0.0
2017-Oct-16 04:00N 29°37' W 095°02'0 0.0
2017-Oct-16 03:31N 29°37' W 095°02'0 0.1
2017-Oct-16 03:00N 29°37' W 095°01'0 0.0
2017-Oct-16 02:30N 29°37' W 095°01'0 0.0
2017-Oct-16 02:00N 29°37' W 095°01'0 0.0
2017-Oct-16 01:30N 29°37' W 095°01'0 0.2
2017-Oct-16 01:00N 29°37' W 095°01'0 0.0
2017-Oct-16 00:30N 29°37' W 095°01'1 2.2
2017-Oct-16 00:00N 29°37' W 095°00'2 4.7
2017-Oct-15 23:30N 29°38' W 094°58'4 7.5
2017-Oct-15 23:00N 29°41' W 094°59'3 6.0
2017-Oct-15 22:29N 29°44' W 095°02'3 6.3
2017-Oct-15 21:56N 29°46' W 095°05'2 0.9
2017-Oct-15 19:55N 29°47' W 095°04'  
2017-Oct-13 02:51N 29°47' W 095°05'1 3.4
2017-Oct-13 02:31N 29°46' W 095°05'1 1.1
2017-Oct-13 01:48N 29°47' W 095°04'1 1.7
2017-Oct-13 01:22N 29°47' W 095°04'1 3.0
2017-Oct-13 01:00N 29°47' W 095°05'2 1.5
2017-Oct-12 23:33N 29°45' W 095°06'1 0.2
2017-Oct-12 19:16N 29°45' W 095°06'2 1.5
2017-Oct-12 18:03N 29°47' W 095°05'0 0.2
2017-Oct-12 15:52N 29°47' W 095°04'1 1.0
2017-Oct-12 14:37N 29°46' W 095°05'1 5.8
2017-Oct-12 14:29N 29°46' W 095°05'1 0.4
2017-Oct-12 13:11N 29°47' W 095°04'1 5.4
2017-Oct-12 13:00N 29°46' W 095°05'1 1.8
2017-Oct-12 12:23N 29°46' W 095°06'2 1.0
2017-Oct-12 10:41N 29°47' W 095°05'0 2.6
2017-Oct-12 10:30N 29°47' W 095°04'2 2.5
2017-Oct-12 09:50N 29°45' W 095°06'2 4.7
2017-Oct-12 09:23N 29°47' W 095°05'0 0.2
2017-Oct-12 08:36N 29°47' W 095°05'0 3.2
2017-Oct-12 08:28N 29°47' W 095°04'0 0.8
2017-Oct-12 07:54N 29°48' W 095°04'0 0.6
2017-Oct-12 07:25N 29°47' W 095°04'1 2.8
2017-Oct-12 06:58N 29°46' W 095°05'3 5.9
2017-Oct-12 06:27N 29°44' W 095°07'0 0.2
2017-Oct-12 05:58N 29°44' W 095°07'3 6.0
2017-Oct-12 05:28N 29°46' W 095°05'1 3.0
2017-Oct-12 05:00N 29°47' W 095°04'2 3.0
2017-Oct-12 04:29N 29°46' W 095°05'2 3.1
2017-Oct-12 04:00N 29°46' W 095°06'1 1.1
2017-Oct-12 03:28N 29°46' W 095°07'1 1.4
2017-Oct-12 02:58N 29°46' W 095°06'3 4.7
2017-Oct-12 02:23N 29°47' W 095°04'1 2.0
2017-Oct-12 01:58N 29°47' W 095°05'2 3.8
2017-Oct-12 01:31N 29°45' W 095°06'1 1.5
2017-Oct-12 00:56N 29°46' W 095°07'0 0.3
2017-Oct-12 00:03N 29°46' W 095°07'0 1.3
2017-Oct-12 00:00N 29°46' W 095°07'0 0.0
2017-Oct-11 23:30N 29°46' W 095°07'3 0.1
2017-Oct-10 23:54N 29°47' W 095°05'2 1.4
2017-Oct-10 22:30N 29°46' W 095°06'3 3.6
2017-Oct-10 21:42N 29°47' W 095°04'0 0.1
2017-Oct-10 21:30N 29°48' W 095°04'0 0.1
2017-Oct-10 21:00N 29°47' W 095°04'0 0.0
2017-Oct-10 20:23N 29°47' W 095°04'0 0.5
2017-Oct-10 19:44N 29°47' W 095°04'0 0.5
2017-Oct-10 19:21N 29°47' W 095°04'2 0.6
2017-Oct-10 15:37N 29°46' W 095°06'1 4.1
2017-Oct-10 15:26N 29°45' W 095°06'1 3.2
2017-Oct-10 14:59N 29°44' W 095°08'4 0.8
2017-Oct-10 09:41N 29°47' W 095°05'0 1.9
2017-Oct-10 09:27N 29°47' W 095°04'1 3.1
2017-Oct-10 09:00N 29°46' W 095°05'0 0.1
2017-Oct-10 08:30N 29°46' W 095°05'2 0.5
2017-Oct-10 04:49N 29°47' W 095°04'1 0.5
2017-Oct-10 03:33N 29°47' W 095°05'1 0.2
2017-Oct-09 21:59N 29°47' W 095°04'1 0.0
2017-Oct-09 05:21N 29°47' W 095°05'1 2.5
2017-Oct-09 05:00N 29°47' W 095°04'1 1.5
2017-Oct-09 04:26N 29°47' W 095°05'2 3.4
2017-Oct-09 03:54N 29°46' W 095°06'1 1.8
2017-Oct-09 03:24N 29°46' W 095°07'0 0.0
2017-Oct-09 02:41N 29°46' W 095°07'0 0.0
2017-Oct-09 02:30N 29°46' W 095°07'0 0.0
2017-Oct-09 01:33N 29°46' W 095°07'0 0.0
2017-Oct-08 23:19N 29°46' W 095°07'0 0.0
2017-Oct-08 13:50N 29°46' W 095°07'0 0.0
2017-Oct-08 13:26N 29°46' W 095°07'0 0.1
2017-Oct-08 13:00N 29°46' W 095°07'0 0.0
2017-Oct-08 12:30N 29°46' W 095°07'0 0.0
2017-Oct-08 12:00N 29°46' W 095°07'0 0.0
2017-Oct-08 11:30N 29°46' W 095°07'0 0.0
2017-Oct-08 11:00N 29°46' W 095°07'0 0.0
2017-Oct-08 10:30N 29°46' W 095°07'0 0.0
2017-Oct-08 10:00N 29°46' W 095°07'0 0.0
2017-Oct-08 09:30N 29°46' W 095°07'0 0.0
2017-Oct-08 08:58N 29°46' W 095°07'0 0.9
2017-Oct-08 08:25N 29°46' W 095°07'1 2.0
2017-Oct-08 08:00N 29°45' W 095°06'3 4.3
2017-Oct-08 07:24N 29°47' W 095°04'1 1.4
2017-Oct-08 06:56N 29°47' W 095°05'0 0.0
2017-Oct-07 07:53N 29°47' W 095°05'0 0.0
2017-Oct-07 07:16N 29°47' W 095°05'  
Track history (hours):
 
Tides and Currents Weather Stations Pressure Air Temp Water Temp Dewpoint Dewpoint Depression Visibility Wind Speed Wind Dir Waves Ship Positions

Savage Better Way

Owner: Savage Inland Marine, Gibson, LA. More information available from US FCC via Universal Licensing System and Coast Guard Vessel Documentation Center.

Last reported at 2017-Oct-17 05:30 UTC. Time now 2017-Oct-17 05:40 UTC.
Position N 29°37' W 095°01'.

Length 27 m; draft 3 m.

Type: Tug. MMSI: 367443840.

Date/timePositionNaut miles runAvg speedWind from/ knotsBaromVisibWave heightAir tempDewpointWater temp
2017-Oct-17 05:30N 29°37' W 095°01'0 0.0
2017-Oct-17 05:00N 29°37' W 095°01'0 0.0
2017-Oct-17 04:30N 29°37' W 095°01'0 0.0
2017-Oct-17 04:00N 29°37' W 095°01'0 0.0
2017-Oct-17 03:30N 29°37' W 095°01'0 0.0
2017-Oct-17 03:00N 29°37' W 095°01'0 0.0
2017-Oct-17 02:30N 29°37' W 095°01'0 0.0
2017-Oct-17 02:00N 29°37' W 095°01'0 0.1
2017-Oct-17 01:30N 29°37' W 095°02'0 0.1
2017-Oct-17 00:56N 29°37' W 095°02'0 0.0
2017-Oct-17 00:30N 29°37' W 095°02'0 0.0
2017-Oct-16 23:49N 29°37' W 095°02'0 0.0
2017-Oct-16 23:27N 29°37' W 095°02'0 0.0
2017-Oct-16 22:57N 29°37' W 095°02'0 0.0
2017-Oct-16 22:30N 29°37' W 095°02'0 0.0
2017-Oct-16 22:00N 29°37' W 095°02'0 0.0
2017-Oct-16 21:30N 29°37' W 095°02'0 0.0
2017-Oct-16 21:00N 29°37' W 095°02'0 0.2
2017-Oct-16 20:30N 29°37' W 095°01'0 0.1
2017-Oct-16 19:50N 29°37' W 095°02'0 0.0
2017-Oct-16 19:27N 29°37' W 095°02'0 0.0
2017-Oct-16 19:00N 29°37' W 095°02'0 0.0
2017-Oct-16 18:30N 29°37' W 095°02'0 0.0
2017-Oct-16 18:00N 29°37' W 095°02'0 0.2
2017-Oct-16 17:30N 29°37' W 095°01'0 0.4
2017-Oct-16 17:00N 29°37' W 095°01'0 0.4
2017-Oct-16 16:30N 29°37' W 095°01'0 0.1
2017-Oct-16 16:00N 29°37' W 095°02'0 0.0
2017-Oct-16 15:26N 29°37' W 095°02'0 0.0
2017-Oct-16 14:52N 29°37' W 095°02'0 0.0
2017-Oct-16 13:54N 29°37' W 095°02'0 0.0
2017-Oct-16 13:30N 29°37' W 095°02'0 0.2
2017-Oct-16 13:00N 29°37' W 095°01'0 0.2
2017-Oct-16 12:30N 29°37' W 095°02'0 0.0
2017-Oct-16 12:00N 29°37' W 095°02'0 0.0
2017-Oct-16 11:30N 29°37' W 095°02'0 0.0
2017-Oct-16 11:00N 29°37' W 095°02'0 0.0
2017-Oct-16 10:30N 29°37' W 095°02'0 0.0
2017-Oct-16 10:00N 29°37' W 095°02'0 0.0
2017-Oct-16 09:30N 29°37' W 095°02'0 0.0
2017-Oct-16 09:00N 29°37' W 095°02'0 0.0
2017-Oct-16 08:30N 29°37' W 095°02'0 0.0
2017-Oct-16 08:00N 29°37' W 095°02'0 0.0
2017-Oct-16 07:29N 29°37' W 095°02'0 0.0
2017-Oct-16 07:00N 29°37' W 095°02'0 0.0
2017-Oct-16 06:29N 29°37' W 095°02'0 0.0
2017-Oct-16 06:00N 29°37' W 095°02'0 0.0
2017-Oct-16 05:29N 29°37' W 095°02'0 0.0
2017-Oct-16 05:00N 29°37' W 095°02'0 0.0
2017-Oct-16 04:30N 29°37' W 095°02'0 0.0
2017-Oct-16 04:00N 29°37' W 095°02'0 0.0
2017-Oct-16 03:31N 29°37' W 095°02'0 0.1
2017-Oct-16 03:00N 29°37' W 095°01'0 0.0
2017-Oct-16 02:30N 29°37' W 095°01'0 0.0
2017-Oct-16 02:00N 29°37' W 095°01'0 0.0
2017-Oct-16 01:30N 29°37' W 095°01'0 0.2
2017-Oct-16 01:00N 29°37' W 095°01'0 0.0
2017-Oct-16 00:30N 29°37' W 095°01'1 2.2
2017-Oct-16 00:00N 29°37' W 095°00'2 4.7
2017-Oct-15 23:30N 29°38' W 094°58'4 7.5
2017-Oct-15 23:00N 29°41' W 094°59'3 6.0
2017-Oct-15 22:29N 29°44' W 095°02'3 6.3
2017-Oct-15 21:56N 29°46' W 095°05'2 0.9
2017-Oct-15 19:55N 29°47' W 095°04'  
2017-Oct-13 02:51N 29°47' W 095°05'1 3.4
2017-Oct-13 02:31N 29°46' W 095°05'1 1.1
2017-Oct-13 01:48N 29°47' W 095°04'1 1.7
2017-Oct-13 01:22N 29°47' W 095°04'1 3.0
2017-Oct-13 01:00N 29°47' W 095°05'2 1.5
2017-Oct-12 23:33N 29°45' W 095°06'1 0.2
2017-Oct-12 19:16N 29°45' W 095°06'2 1.5
2017-Oct-12 18:03N 29°47' W 095°05'0 0.2
2017-Oct-12 15:52N 29°47' W 095°04'1 1.0
2017-Oct-12 14:37N 29°46' W 095°05'1 5.8
2017-Oct-12 14:29N 29°46' W 095°05'1 0.4
2017-Oct-12 13:11N 29°47' W 095°04'1 5.4
2017-Oct-12 13:00N 29°46' W 095°05'1 1.8
2017-Oct-12 12:23N 29°46' W 095°06'2 1.0
2017-Oct-12 10:41N 29°47' W 095°05'0 2.6
2017-Oct-12 10:30N 29°47' W 095°04'2 2.5
2017-Oct-12 09:50N 29°45' W 095°06'2 4.7
2017-Oct-12 09:23N 29°47' W 095°05'0 0.2
2017-Oct-12 08:36N 29°47' W 095°05'0 3.2
2017-Oct-12 08:28N 29°47' W 095°04'0 0.8
2017-Oct-12 07:54N 29°48' W 095°04'0 0.6
2017-Oct-12 07:25N 29°47' W 095°04'1 2.8
2017-Oct-12 06:58N 29°46' W 095°05'3 5.9
2017-Oct-12 06:27N 29°44' W 095°07'0 0.2
2017-Oct-12 05:58N 29°44' W 095°07'3 6.0
2017-Oct-12 05:28N 29°46' W 095°05'1 3.0
2017-Oct-12 05:00N 29°47' W 095°04'2 3.0
2017-Oct-12 04:29N 29°46' W 095°05'2 3.1
2017-Oct-12 04:00N 29°46' W 095°06'1 1.1
2017-Oct-12 03:28N 29°46' W 095°07'1 1.4
2017-Oct-12 02:58N 29°46' W 095°06'3 4.7
2017-Oct-12 02:23N 29°47' W 095°04'1 2.0
2017-Oct-12 01:58N 29°47' W 095°05'2 3.8
2017-Oct-12 01:31N 29°45' W 095°06'1 1.5
2017-Oct-12 00:56N 29°46' W 095°07'0 0.3
2017-Oct-12 00:03N 29°46' W 095°07'0 1.3
2017-Oct-12 00:00N 29°46' W 095°07'0 0.0
2017-Oct-11 23:30N 29°46' W 095°07'3 0.1
2017-Oct-10 23:54N 29°47' W 095°05'2 1.4
2017-Oct-10 22:30N 29°46' W 095°06'3 3.6
2017-Oct-10 21:42N 29°47' W 095°04'0 0.1
2017-Oct-10 21:30N 29°48' W 095°04'0 0.1
2017-Oct-10 21:00N 29°47' W 095°04'0 0.0
2017-Oct-10 20:23N 29°47' W 095°04'0 0.5
2017-Oct-10 19:44N 29°47' W 095°04'0 0.5
2017-Oct-10 19:21N 29°47' W 095°04'2 0.6
2017-Oct-10 15:37N 29°46' W 095°06'1 4.1
2017-Oct-10 15:26N 29°45' W 095°06'1 3.2
2017-Oct-10 14:59N 29°44' W 095°08'4 0.8
2017-Oct-10 09:41N 29°47' W 095°05'0 1.9
2017-Oct-10 09:27N 29°47' W 095°04'1 3.1
2017-Oct-10 09:00N 29°46' W 095°05'0 0.1
2017-Oct-10 08:30N 29°46' W 095°05'2 0.5
2017-Oct-10 04:49N 29°47' W 095°04'1 0.5
2017-Oct-10 03:33N 29°47' W 095°05'1 0.2
2017-Oct-09 21:59N 29°47' W 095°04'1 0.0
2017-Oct-09 05:21N 29°47' W 095°05'1 2.5
2017-Oct-09 05:00N 29°47' W 095°04'1 1.5
2017-Oct-09 04:26N 29°47' W 095°05'2 3.4
2017-Oct-09 03:54N 29°46' W 095°06'1 1.8
2017-Oct-09 03:24N 29°46' W 095°07'0 0.0
2017-Oct-09 02:41N 29°46' W 095°07'0 0.0
2017-Oct-09 02:30N 29°46' W 095°07'0 0.0
2017-Oct-09 01:33N 29°46' W 095°07'0 0.0
2017-Oct-08 23:19N 29°46' W 095°07'0 0.0
2017-Oct-08 13:50N 29°46' W 095°07'0 0.0
2017-Oct-08 13:26N 29°46' W 095°07'0 0.1
2017-Oct-08 13:00N 29°46' W 095°07'0 0.0
2017-Oct-08 12:30N 29°46' W 095°07'0 0.0
2017-Oct-08 12:00N 29°46' W 095°07'0 0.0
2017-Oct-08 11:30N 29°46' W 095°07'0 0.0
2017-Oct-08 11:00N 29°46' W 095°07'0 0.0
2017-Oct-08 10:30N 29°46' W 095°07'0 0.0
2017-Oct-08 10:00N 29°46' W 095°07'0 0.0
2017-Oct-08 09:30N 29°46' W 095°07'0 0.0
2017-Oct-08 08:58N 29°46' W 095°07'0 0.9
2017-Oct-08 08:25N 29°46' W 095°07'1 2.0
2017-Oct-08 08:00N 29°45' W 095°06'3 4.3
2017-Oct-08 07:24N 29°47' W 095°04'1 1.4
2017-Oct-08 06:56N 29°47' W 095°05'0 0.0
2017-Oct-07 07:53N 29°47' W 095°05'0 0.0
2017-Oct-07 07:16N 29°47' W 095°05'  

Dump ship's entire track history